sensor_id;sensor_type;location;lat;lon;timestamp;pressure;altitude;pressure_sealevel;temperature;humidity
17230;BME280;8731;50.364;8.958;2022-12-18T00:01:14;101563.59;;;-7.07;87.41
17230;BME280;8731;50.364;8.958;2022-12-18T00:05:46;101574.47;;;-7.11;87.31
17230;BME280;8731;50.364;8.958;2022-12-18T00:10:09;101580.53;;;-7.36;87.56
17230;BME280;8731;50.364;8.958;2022-12-18T00:14:31;101577.44;;;-7.71;87.87
17230;BME280;8731;50.364;8.958;2022-12-18T00:18:55;101575.63;;;-7.54;89.51
17230;BME280;8731;50.364;8.958;2022-12-18T00:23:22;101578.13;;;-7.40;88.89
17230;BME280;8731;50.364;8.958;2022-12-18T00:27:44;101576.16;;;-7.87;88.67
17230;BME280;8731;50.364;8.958;2022-12-18T00:32:08;101567.72;;;-7.79;87.55
17230;BME280;8731;50.364;8.958;2022-12-18T00:36:32;101569.16;;;-7.58;87.94
17230;BME280;8731;50.364;8.958;2022-12-18T00:40:57;101573.56;;;-7.61;87.28
17230;BME280;8731;50.364;8.958;2022-12-18T00:45:20;101576.66;;;-7.62;86.39
17230;BME280;8731;50.364;8.958;2022-12-18T00:49:42;101569.66;;;-7.86;85.76
17230;BME280;8731;50.364;8.958;2022-12-18T00:54:04;101583.19;;;-7.80;86.33
17230;BME280;8731;50.364;8.958;2022-12-18T00:58:28;101580.72;;;-7.80;86.02
17230;BME280;8731;50.364;8.958;2022-12-18T01:02:51;101586.25;;;-7.81;86.28
17230;BME280;8731;50.364;8.958;2022-12-18T01:07:13;101590.22;;;-7.95;85.03
17230;BME280;8731;50.364;8.958;2022-12-18T01:11:36;101585.53;;;-8.12;84.75
17230;BME280;8731;50.364;8.958;2022-12-18T01:15:59;101584.41;;;-8.18;85.69
17230;BME280;8731;50.364;8.958;2022-12-18T01:20:22;101591.03;;;-8.09;84.84
17230;BME280;8731;50.364;8.958;2022-12-18T01:24:44;101597.88;;;-8.12;84.53
17230;BME280;8731;50.364;8.958;2022-12-18T01:29:06;101603.16;;;-8.14;85.08
17230;BME280;8731;50.364;8.958;2022-12-18T01:33:30;101594.53;;;-8.34;85.24
17230;BME280;8731;50.364;8.958;2022-12-18T01:37:54;101605.34;;;-8.33;84.91
17230;BME280;8731;50.364;8.958;2022-12-18T01:42:17;101605.34;;;-8.33;84.44
17230;BME280;8731;50.364;8.958;2022-12-18T01:46:42;101600.16;;;-8.39;84.36
17230;BME280;8731;50.364;8.958;2022-12-18T01:51:06;101605.31;;;-8.51;83.74
17230;BME280;8731;50.364;8.958;2022-12-18T01:55:38;101612.84;;;-8.63;84.33
17230;BME280;8731;50.364;8.958;2022-12-18T02:00:07;101598.41;;;-8.92;84.29
17230;BME280;8731;50.364;8.958;2022-12-18T02:04:35;101588.16;;;-8.85;84.28
17230;BME280;8731;50.364;8.958;2022-12-18T02:09:04;101583.06;;;-8.73;83.63
17230;BME280;8731;50.364;8.958;2022-12-18T02:13:37;101593.88;;;-8.77;84.11
17230;BME280;8731;50.364;8.958;2022-12-18T02:18:08;101578.28;;;-8.85;83.65
17230;BME280;8731;50.364;8.958;2022-12-18T02:22:40;101570.94;;;-8.89;83.41
17230;BME280;8731;50.364;8.958;2022-12-18T02:27:15;101580.28;;;-8.96;83.02
17230;BME280;8731;50.364;8.958;2022-12-18T02:31:42;101589.22;;;-8.97;83.42
17230;BME280;8731;50.364;8.958;2022-12-18T02:36:08;101594.88;;;-9.06;83.40
17230;BME280;8731;50.364;8.958;2022-12-18T02:40:33;101600.13;;;-9.09;82.67
17230;BME280;8731;50.364;8.958;2022-12-18T02:44:58;101593.94;;;-9.33;82.81
17230;BME280;8731;50.364;8.958;2022-12-18T02:49:29;101596.41;;;-9.33;82.64
17230;BME280;8731;50.364;8.958;2022-12-18T02:54:02;101592.91;;;-9.25;82.82
17230;BME280;8731;50.364;8.958;2022-12-18T02:58:37;101584.88;;;-9.24;82.49
17230;BME280;8731;50.364;8.958;2022-12-18T03:03:25;101583.41;;;-9.27;82.50
17230;BME280;8731;50.364;8.958;2022-12-18T03:07:56;101599.50;;;-9.34;82.46
17230;BME280;8731;50.364;8.958;2022-12-18T03:12:28;101599.53;;;-9.38;82.13
17230;BME280;8731;50.364;8.958;2022-12-18T03:16:59;101588.53;;;-9.44;82.42
17230;BME280;8731;50.364;8.958;2022-12-18T03:21:28;101598.44;;;-9.52;82.48
17230;BME280;8731;50.364;8.958;2022-12-18T03:25:57;101586.91;;;-9.69;82.03
17230;BME280;8731;50.364;8.958;2022-12-18T03:30:29;101591.09;;;-9.56;82.03
17230;BME280;8731;50.364;8.958;2022-12-18T03:34:58;101585.28;;;-9.61;82.55
17230;BME280;8731;50.364;8.958;2022-12-18T03:39:29;101594.91;;;-9.70;82.18
17230;BME280;8731;50.364;8.958;2022-12-18T03:43:58;101585.03;;;-9.70;82.09
17230;BME280;8731;50.364;8.958;2022-12-18T03:48:31;101596.78;;;-9.69;81.86
17230;BME280;8731;50.364;8.958;2022-12-18T03:53:12;101591.91;;;-9.77;82.51
17230;BME280;8731;50.364;8.958;2022-12-18T03:57:45;101594.69;;;-9.80;82.01
17230;BME280;8731;50.364;8.958;2022-12-18T04:02:10;101603.66;;;-9.84;82.07
17230;BME280;8731;50.364;8.958;2022-12-18T04:06:33;101601.50;;;-9.83;82.67
17230;BME280;8731;50.364;8.958;2022-12-18T04:10:57;101598.44;;;-9.86;82.28
17230;BME280;8731;50.364;8.958;2022-12-18T04:15:23;101589.84;;;-9.88;82.29
17230;BME280;8731;50.364;8.958;2022-12-18T04:19:46;101592.66;;;-9.91;82.06
17230;BME280;8731;50.364;8.958;2022-12-18T04:24:10;101592.34;;;-9.96;81.87
17230;BME280;8731;50.364;8.958;2022-12-18T04:28:38;101590.53;;;-9.97;82.62
17230;BME280;8731;50.364;8.958;2022-12-18T04:33:02;101586.59;;;-10.05;82.57
17230;BME280;8731;50.364;8.958;2022-12-18T04:37:26;101581.78;;;-10.17;81.86
17230;BME280;8731;50.364;8.958;2022-12-18T04:41:49;101587.28;;;-10.18;81.63
17230;BME280;8731;50.364;8.958;2022-12-18T04:46:11;101605.16;;;-10.15;81.86
17230;BME280;8731;50.364;8.958;2022-12-18T04:50:36;101602.94;;;-10.09;82.10
17230;BME280;8731;50.364;8.958;2022-12-18T04:54:58;101584.31;;;-10.25;82.04
17230;BME280;8731;50.364;8.958;2022-12-18T04:59:20;101580.38;;;-10.33;81.88
17230;BME280;8731;50.364;8.958;2022-12-18T05:03:43;101576.63;;;-10.27;81.71
17230;BME280;8731;50.364;8.958;2022-12-18T05:08:07;101586.91;;;-10.45;81.59
17230;BME280;8731;50.364;8.958;2022-12-18T05:12:30;101597.63;;;-10.37;82.16
17230;BME280;8731;50.364;8.958;2022-12-18T05:16:53;101599.75;;;-10.34;81.38
17230;BME280;8731;50.364;8.958;2022-12-18T05:21:16;101596.69;;;-10.33;82.11
17230;BME280;8731;50.364;8.958;2022-12-18T05:25:39;101604.72;;;-10.42;82.16
17230;BME280;8731;50.364;8.958;2022-12-18T05:30:03;101610.94;;;-10.52;81.97
17230;BME280;8731;50.364;8.958;2022-12-18T05:34:25;101606.59;;;-10.45;81.47
17230;BME280;8731;50.364;8.958;2022-12-18T05:38:48;101600.56;;;-10.68;81.96
17230;BME280;8731;50.364;8.958;2022-12-18T05:43:11;101599.03;;;-10.63;81.87
17230;BME280;8731;50.364;8.958;2022-12-18T05:47:34;101596.25;;;-10.61;81.86
17230;BME280;8731;50.364;8.958;2022-12-18T05:51:56;101598.38;;;-10.58;81.46
17230;BME280;8731;50.364;8.958;2022-12-18T05:56:21;101599.63;;;-10.68;82.16
17230;BME280;8731;50.364;8.958;2022-12-18T06:00:45;101603.31;;;-10.66;81.93
17230;BME280;8731;50.364;8.958;2022-12-18T06:05:08;101607.94;;;-10.68;82.21
17230;BME280;8731;50.364;8.958;2022-12-18T06:09:31;101605.19;;;-10.69;81.94
17230;BME280;8731;50.364;8.958;2022-12-18T06:13:55;101607.63;;;-10.69;81.67
17230;BME280;8731;50.364;8.958;2022-12-18T06:18:19;101610.41;;;-10.72;82.20
17230;BME280;8731;50.364;8.958;2022-12-18T06:22:41;101624.25;;;-10.72;81.54
17230;BME280;8731;50.364;8.958;2022-12-18T06:27:04;101626.38;;;-10.70;81.36
17230;BME280;8731;50.364;8.958;2022-12-18T06:31:26;101619.03;;;-10.74;82.35
17230;BME280;8731;50.364;8.958;2022-12-18T06:35:50;101613.50;;;-10.73;81.98
17230;BME280;8731;50.364;8.958;2022-12-18T06:40:12;101609.19;;;-10.74;81.63
17230;BME280;8731;50.364;8.958;2022-12-18T06:44:34;101607.44;;;-10.87;82.11
17230;BME280;8731;50.364;8.958;2022-12-18T06:48:57;101620.31;;;-10.84;82.45
17230;BME280;8731;50.364;8.958;2022-12-18T06:53:20;101619.38;;;-10.80;81.97
17230;BME280;8731;50.364;8.958;2022-12-18T06:57:43;101618.50;;;-10.85;81.80
17230;BME280;8731;50.364;8.958;2022-12-18T07:02:05;101627.09;;;-10.83;81.84
17230;BME280;8731;50.364;8.958;2022-12-18T07:06:28;101640.91;;;-10.83;81.83
17230;BME280;8731;50.364;8.958;2022-12-18T07:10:51;101639.38;;;-10.83;81.49
17230;BME280;8731;50.364;8.958;2022-12-18T07:15:14;101653.50;;;-10.82;81.33
17230;BME280;8731;50.364;8.958;2022-12-18T07:19:37;101654.75;;;-10.84;81.88
17230;BME280;8731;50.364;8.958;2022-12-18T07:23:59;101657.22;;;-10.88;81.81
17230;BME280;8731;50.364;8.958;2022-12-18T07:28:23;101661.81;;;-10.86;82.27
17230;BME280;8731;50.364;8.958;2022-12-18T07:32:45;101656.00;;;-10.86;82.19
17230;BME280;8731;50.364;8.958;2022-12-18T07:37:07;101665.19;;;-10.81;82.05
17230;BME280;8731;50.364;8.958;2022-12-18T07:41:30;101661.22;;;-10.85;81.83
17230;BME280;8731;50.364;8.958;2022-12-18T07:46:03;101655.97;;;-10.90;82.49
17230;BME280;8731;50.364;8.958;2022-12-18T07:50:26;101652.88;;;-10.81;82.56
17230;BME280;8731;50.364;8.958;2022-12-18T07:54:48;101656.53;;;-10.75;82.28
17230;BME280;8731;50.364;8.958;2022-12-18T07:59:11;101650.72;;;-10.79;82.97
17230;BME280;8731;50.364;8.958;2022-12-18T08:03:36;101651.34;;;-10.80;83.23
17230;BME280;8731;50.364;8.958;2022-12-18T08:07:59;101645.75;;;-10.67;83.34
17230;BME280;8731;50.364;8.958;2022-12-18T08:12:21;101657.13;;;-10.60;83.53
17230;BME280;8731;50.364;8.958;2022-12-18T08:16:44;101650.25;;;-10.44;82.99
17230;BME280;8731;50.364;8.958;2022-12-18T08:21:11;101655.34;;;-10.23;82.99
17230;BME280;8731;50.364;8.958;2022-12-18T08:25:35;101643.16;;;-9.97;82.39
17230;BME280;8731;50.364;8.958;2022-12-18T08:29:57;101622.63;;;-9.37;82.68
17230;BME280;8731;50.364;8.958;2022-12-18T08:34:20;101604.59;;;-8.94;82.80
17230;BME280;8731;50.364;8.958;2022-12-18T08:38:44;101595.16;;;-8.35;81.81
17230;BME280;8731;50.364;8.958;2022-12-18T08:43:07;101583.03;;;-7.72;82.35
17230;BME280;8731;50.364;8.958;2022-12-18T08:47:48;101579.59;;;-7.19;81.43
17230;BME280;8731;50.364;8.958;2022-12-18T08:52:11;101573.19;;;-6.77;80.57
17230;BME280;8731;50.364;8.958;2022-12-18T08:56:37;101578.78;;;-6.24;79.65
17230;BME280;8731;50.364;8.958;2022-12-18T09:01:00;101578.22;;;-5.52;79.94
17230;BME280;8731;50.364;8.958;2022-12-18T09:05:25;101564.31;;;-5.19;78.29
17230;BME280;8731;50.364;8.958;2022-12-18T09:09:48;101564.22;;;-4.53;77.76
17230;BME280;8731;50.364;8.958;2022-12-18T09:14:11;101568.19;;;-4.49;76.17
17230;BME280;8731;50.364;8.958;2022-12-18T09:18:34;101559.41;;;-3.70;75.49
17230;BME280;8731;50.364;8.958;2022-12-18T09:22:56;101557.13;;;-3.59;73.68
17230;BME280;8731;50.364;8.958;2022-12-18T09:27:19;101571.44;;;-2.64;74.10
17230;BME280;8731;50.364;8.958;2022-12-18T09:31:42;101556.41;;;-1.83;73.41
17230;BME280;8731;50.364;8.958;2022-12-18T09:36:09;101565.94;;;-1.66;72.42
17230;BME280;8731;50.364;8.958;2022-12-18T09:40:36;101562.38;;;-1.05;70.84
17230;BME280;8731;50.364;8.958;2022-12-18T09:45:07;101559.47;;;-0.55;70.27
17230;BME280;8731;50.364;8.958;2022-12-18T09:49:39;101569.66;;;-0.07;68.92
17230;BME280;8731;50.364;8.958;2022-12-18T09:54:07;101560.00;;;0.49;69.15
17230;BME280;8731;50.364;8.958;2022-12-18T09:58:39;101553.91;;;0.70;67.77
17230;BME280;8731;50.364;8.958;2022-12-18T10:03:09;101548.41;;;1.49;67.34
17230;BME280;8731;50.364;8.958;2022-12-18T10:07:42;101528.69;;;2.30;67.78
17230;BME280;8731;50.364;8.958;2022-12-18T10:12:26;101536.09;;;1.56;68.95
17230;BME280;8731;50.364;8.958;2022-12-18T10:17:00;101541.16;;;2.64;66.81
17230;BME280;8731;50.364;8.958;2022-12-18T10:21:33;101538.31;;;2.16;64.18
17230;BME280;8731;50.364;8.958;2022-12-18T10:26:03;101537.78;;;2.35;63.81
17230;BME280;8731;50.364;8.958;2022-12-18T10:30:27;101529.00;;;2.67;64.67
17230;BME280;8731;50.364;8.958;2022-12-18T10:34:50;101523.59;;;2.47;64.75
17230;BME280;8731;50.364;8.958;2022-12-18T10:39:16;101525.25;;;2.41;67.04
17230;BME280;8731;50.364;8.958;2022-12-18T10:43:41;101521.94;;;1.34;63.44
17230;BME280;8731;50.364;8.958;2022-12-18T10:48:04;101518.72;;;2.02;66.04
17230;BME280;8731;50.364;8.958;2022-12-18T10:52:38;101516.47;;;1.65;64.41
17230;BME280;8731;50.364;8.958;2022-12-18T10:57:14;101516.50;;;1.42;64.34
17230;BME280;8731;50.364;8.958;2022-12-18T11:01:50;101515.56;;;1.25;65.56
17230;BME280;8731;50.364;8.958;2022-12-18T11:06:16;101513.50;;;1.22;66.02
17230;BME280;8731;50.364;8.958;2022-12-18T11:10:46;101523.84;;;0.70;65.86
17230;BME280;8731;50.364;8.958;2022-12-18T11:15:15;101520.50;;;0.91;65.17
17230;BME280;8731;50.364;8.958;2022-12-18T11:19:42;101524.13;;;0.77;65.71
17230;BME280;8731;50.364;8.958;2022-12-18T11:24:07;101516.47;;;0.00;65.83
17230;BME280;8731;50.364;8.958;2022-12-18T11:28:44;101520.50;;;0.26;66.69
17230;BME280;8731;50.364;8.958;2022-12-18T11:33:14;101505.53;;;-0.01;67.35
17230;BME280;8731;50.364;8.958;2022-12-18T11:37:45;101488.09;;;0.16;67.05
17230;BME280;8731;50.364;8.958;2022-12-18T11:42:13;101480.56;;;0.11;70.19
17230;BME280;8731;50.364;8.958;2022-12-18T11:46:47;101468.59;;;0.30;67.96
17230;BME280;8731;50.364;8.958;2022-12-18T11:56:07;101496.06;;;0.14;67.51
17230;BME280;8731;50.364;8.958;2022-12-18T12:00:51;101493.44;;;0.40;68.16
17230;BME280;8731;50.364;8.958;2022-12-18T12:05:30;101498.31;;;0.55;67.21
17230;BME280;8731;50.364;8.958;2022-12-18T12:10:18;101495.81;;;0.67;67.72
17230;BME280;8731;50.364;8.958;2022-12-18T12:14:55;101490.00;;;0.34;69.14
17230;BME280;8731;50.364;8.958;2022-12-18T12:19:34;101476.56;;;0.28;71.33
17230;BME280;8731;50.364;8.958;2022-12-18T12:24:14;101478.16;;;-0.16;71.18
17230;BME280;8731;50.364;8.958;2022-12-18T12:28:56;101483.41;;;-0.09;71.63
17230;BME280;8731;50.364;8.958;2022-12-18T12:33:35;101484.78;;;-0.11;71.76
17230;BME280;8731;50.364;8.958;2022-12-18T12:38:07;101485.25;;;-0.45;72.83
17230;BME280;8731;50.364;8.958;2022-12-18T12:42:36;101506.97;;;-0.55;71.57
17230;BME280;8731;50.364;8.958;2022-12-18T12:47:26;101504.13;;;-0.95;72.83
17230;BME280;8731;50.364;8.958;2022-12-18T12:51:58;101499.44;;;-1.29;73.11
17230;BME280;8731;50.364;8.958;2022-12-18T12:56:30;101497.78;;;-1.55;73.16
17230;BME280;8731;50.364;8.958;2022-12-18T13:01:08;101492.97;;;-1.59;73.92
17230;BME280;8731;50.364;8.958;2022-12-18T13:05:41;101482.06;;;-1.96;74.23
17230;BME280;8731;50.364;8.958;2022-12-18T13:10:35;101486.06;;;-2.17;74.33
17230;BME280;8731;50.364;8.958;2022-12-18T13:15:12;101480.16;;;-2.18;74.16
17230;BME280;8731;50.364;8.958;2022-12-18T13:19:41;101478.75;;;-2.06;75.06
17230;BME280;8731;50.364;8.958;2022-12-18T13:24:15;101486.78;;;-1.97;76.01
17230;BME280;8731;50.364;8.958;2022-12-18T13:28:52;101492.53;;;-1.93;74.57
17230;BME280;8731;50.364;8.958;2022-12-18T13:33:48;101496.53;;;-1.99;74.96
17230;BME280;8731;50.364;8.958;2022-12-18T13:38:21;101482.91;;;-2.16;75.28
17230;BME280;8731;50.364;8.958;2022-12-18T13:42:45;101474.59;;;-2.26;75.39
17230;BME280;8731;50.364;8.958;2022-12-18T13:47:31;101481.56;;;-2.44;76.11
17230;BME280;8731;50.364;8.958;2022-12-18T13:51:55;101489.97;;;-2.29;75.60
17230;BME280;8731;50.364;8.958;2022-12-18T13:56:22;101491.31;;;-2.31;75.92
17230;BME280;8731;50.364;8.958;2022-12-18T14:00:45;101486.81;;;-2.58;76.57
17230;BME280;8731;50.364;8.958;2022-12-18T14:05:21;101483.66;;;-2.57;76.53
17230;BME280;8731;50.364;8.958;2022-12-18T14:09:46;101483.31;;;-2.49;77.36
17230;BME280;8731;50.364;8.958;2022-12-18T14:14:13;101486.84;;;-2.83;77.37
17230;BME280;8731;50.364;8.958;2022-12-18T14:18:42;101489.34;;;-2.83;78.29
17230;BME280;8731;50.364;8.958;2022-12-18T14:23:25;101484.88;;;-2.80;77.46
17230;BME280;8731;50.364;8.958;2022-12-18T14:27:51;101484.38;;;-2.83;78.41
17230;BME280;8731;50.364;8.958;2022-12-18T14:32:23;101480.31;;;-2.83;78.76
17230;BME280;8731;50.364;8.958;2022-12-18T14:36:52;101477.66;;;-2.79;77.70
17230;BME280;8731;50.364;8.958;2022-12-18T14:41:18;101465.09;;;-3.09;80.57
17230;BME280;8731;50.364;8.958;2022-12-18T14:45:42;101459.41;;;-2.98;80.55
17230;BME280;8731;50.364;8.958;2022-12-18T14:50:12;101465.97;;;-2.99;81.18
17230;BME280;8731;50.364;8.958;2022-12-18T14:54:37;101465.56;;;-2.96;81.14
17230;BME280;8731;50.364;8.958;2022-12-18T14:59:03;101465.38;;;-2.92;81.35
17230;BME280;8731;50.364;8.958;2022-12-18T15:03:27;101458.38;;;-2.80;79.73
17230;BME280;8731;50.364;8.958;2022-12-18T15:07:51;101466.41;;;-3.11;81.60
17230;BME280;8731;50.364;8.958;2022-12-18T15:12:26;101458.91;;;-2.86;80.08
17230;BME280;8731;50.364;8.958;2022-12-18T15:16:56;101456.41;;;-3.01;82.03
17230;BME280;8731;50.364;8.958;2022-12-18T15:21:20;101434.16;;;-2.90;81.08
17230;BME280;8731;50.364;8.958;2022-12-18T15:25:43;101439.97;;;-2.95;81.95
17230;BME280;8731;50.364;8.958;2022-12-18T15:30:22;101431.94;;;-3.04;83.21
17230;BME280;8731;50.364;8.958;2022-12-18T15:34:46;101429.44;;;-2.89;81.45
17230;BME280;8731;50.364;8.958;2022-12-18T15:39:11;101417.16;;;-2.93;81.60
17230;BME280;8731;50.364;8.958;2022-12-18T15:43:37;101420.63;;;-2.87;80.83
17230;BME280;8731;50.364;8.958;2022-12-18T15:48:00;101430.03;;;-2.95;81.25
17230;BME280;8731;50.364;8.958;2022-12-18T15:52:31;101417.41;;;-2.91;80.85
17230;BME280;8731;50.364;8.958;2022-12-18T15:57:00;101409.44;;;-2.79;80.30
17230;BME280;8731;50.364;8.958;2022-12-18T16:01:42;101398.56;;;-2.80;80.70
17230;BME280;8731;50.364;8.958;2022-12-18T16:06:07;101396.09;;;-2.80;80.58
17230;BME280;8731;50.364;8.958;2022-12-18T16:10:32;101396.34;;;-2.78;81.05
17230;BME280;8731;50.364;8.958;2022-12-18T16:14:54;101386.84;;;-2.75;80.58
17230;BME280;8731;50.364;8.958;2022-12-18T16:19:17;101381.13;;;-2.64;79.97
17230;BME280;8731;50.364;8.958;2022-12-18T16:23:41;101365.75;;;-2.77;79.83
17230;BME280;8731;50.364;8.958;2022-12-18T16:28:05;101362.59;;;-2.61;79.89
17230;BME280;8731;50.364;8.958;2022-12-18T16:32:28;101375.56;;;-2.58;80.43
17230;BME280;8731;50.364;8.958;2022-12-18T16:36:51;101375.81;;;-2.56;80.02
17230;BME280;8731;50.364;8.958;2022-12-18T16:41:18;101363.59;;;-2.55;79.84
17230;BME280;8731;50.364;8.958;2022-12-18T16:45:53;101361.09;;;-2.55;79.99
17230;BME280;8731;50.364;8.958;2022-12-18T16:50:17;101358.84;;;-2.53;80.16
17230;BME280;8731;50.364;8.958;2022-12-18T16:54:40;101354.19;;;-2.61;80.17
17230;BME280;8731;50.364;8.958;2022-12-18T16:59:03;101348.22;;;-2.52;79.90
17230;BME280;8731;50.364;8.958;2022-12-18T17:03:27;101352.13;;;-2.49;79.79
17230;BME280;8731;50.364;8.958;2022-12-18T17:07:50;101355.09;;;-2.45;79.77
17230;BME280;8731;50.364;8.958;2022-12-18T17:12:12;101345.13;;;-2.45;80.31
17230;BME280;8731;50.364;8.958;2022-12-18T17:16:34;101345.13;;;-2.45;80.44
17230;BME280;8731;50.364;8.958;2022-12-18T17:20:59;101342.41;;;-2.11;84.44
17230;BME280;8731;50.364;8.958;2022-12-18T17:25:22;101346.09;;;-2.24;83.57
17230;BME280;8731;50.364;8.958;2022-12-18T17:29:44;101352.91;;;-2.23;82.41
17230;BME280;8731;50.364;8.958;2022-12-18T17:34:08;101356.31;;;-2.23;82.09
17230;BME280;8731;50.364;8.958;2022-12-18T17:38:36;101350.88;;;-2.20;81.61
17230;BME280;8731;50.364;8.958;2022-12-18T17:42:58;101357.22;;;-2.22;81.73
17230;BME280;8731;50.364;8.958;2022-12-18T17:47:20;101349.53;;;-2.18;80.86
17230;BME280;8731;50.364;8.958;2022-12-18T17:51:43;101364.03;;;-2.21;80.46
17230;BME280;8731;50.364;8.958;2022-12-18T17:56:08;101363.16;;;-2.16;80.89
17230;BME280;8731;50.364;8.958;2022-12-18T18:00:34;101346.63;;;-2.16;81.09
17230;BME280;8731;50.364;8.958;2022-12-18T18:04:59;101332.28;;;-2.22;80.69
17230;BME280;8731;50.364;8.958;2022-12-18T18:09:21;101336.66;;;-2.16;81.05
17230;BME280;8731;50.364;8.958;2022-12-18T18:13:45;101333.50;;;-2.14;81.01
17230;BME280;8731;50.364;8.958;2022-12-18T18:18:24;101326.91;;;-2.14;80.40
17230;BME280;8731;50.364;8.958;2022-12-18T18:22:46;101323.50;;;-2.14;81.45
17230;BME280;8731;50.364;8.958;2022-12-18T18:27:09;101332.44;;;-2.11;80.88
17230;BME280;8731;50.364;8.958;2022-12-18T18:31:33;101329.94;;;-2.11;81.01
17230;BME280;8731;50.364;8.958;2022-12-18T18:35:56;101320.63;;;-2.12;80.99
17230;BME280;8731;50.364;8.958;2022-12-18T18:40:18;101315.88;;;-2.10;80.94
17230;BME280;8731;50.364;8.958;2022-12-18T18:44:41;101316.53;;;-2.11;81.32
17230;BME280;8731;50.364;8.958;2022-12-18T18:49:05;101317.22;;;-2.12;81.04
17230;BME280;8731;50.364;8.958;2022-12-18T18:53:28;101324.28;;;-2.10;81.53
17230;BME280;8731;50.364;8.958;2022-12-18T18:57:51;101320.78;;;-2.16;81.36
17230;BME280;8731;50.364;8.958;2022-12-18T19:02:14;101317.06;;;-2.24;81.55
17230;BME280;8731;50.364;8.958;2022-12-18T19:06:38;101299.66;;;-2.18;81.64
17230;BME280;8731;50.364;8.958;2022-12-18T19:11:03;101305.31;;;-2.19;81.95
17230;BME280;8731;50.364;8.958;2022-12-18T19:15:48;101298.28;;;-2.22;82.21
17230;BME280;8731;50.364;8.958;2022-12-18T19:20:11;101297.78;;;-2.25;81.91
17230;BME280;8731;50.364;8.958;2022-12-18T19:29:02;101281.47;;;-2.43;82.43
17230;BME280;8731;50.364;8.958;2022-12-18T19:33:27;101268.75;;;-2.45;83.63
17230;BME280;8731;50.364;8.958;2022-12-18T19:37:52;101272.06;;;-2.35;83.04
17230;BME280;8731;50.364;8.958;2022-12-18T19:42:15;101276.88;;;-2.31;82.81
17230;BME280;8731;50.364;8.958;2022-12-18T19:46:38;101265.97;;;-2.31;82.49
17230;BME280;8731;50.364;8.958;2022-12-18T19:51:04;101259.16;;;-2.32;82.83
17230;BME280;8731;50.364;8.958;2022-12-18T19:55:27;101256.00;;;-2.31;83.17
17230;BME280;8731;50.364;8.958;2022-12-18T19:59:51;101268.28;;;-2.27;83.09
17230;BME280;8731;50.364;8.958;2022-12-18T20:04:15;101258.13;;;-2.23;82.34
17230;BME280;8731;50.364;8.958;2022-12-18T20:08:37;101244.44;;;-2.31;83.36
17230;BME280;8731;50.364;8.958;2022-12-18T20:13:00;101231.38;;;-2.24;83.25
17230;BME280;8731;50.364;8.958;2022-12-18T20:17:24;101246.63;;;-2.17;82.82
17230;BME280;8731;50.364;8.958;2022-12-18T20:21:46;101244.38;;;-2.16;83.11
17230;BME280;8731;50.364;8.958;2022-12-18T20:26:09;101241.72;;;-2.11;83.09
17230;BME280;8731;50.364;8.958;2022-12-18T20:30:31;101242.19;;;-2.08;82.83
17230;BME280;8731;50.364;8.958;2022-12-18T20:34:55;101239.94;;;-2.07;82.79
17230;BME280;8731;50.364;8.958;2022-12-18T20:39:17;101238.13;;;-2.08;82.75
17230;BME280;8731;50.364;8.958;2022-12-18T20:43:40;101237.94;;;-2.04;82.99
17230;BME280;8731;50.364;8.958;2022-12-18T20:48:03;101245.41;;;-2.04;83.63
17230;BME280;8731;50.364;8.958;2022-12-18T20:52:27;101236.09;;;-2.05;83.13
17230;BME280;8731;50.364;8.958;2022-12-18T20:56:49;101241.38;;;-1.98;83.40
17230;BME280;8731;50.364;8.958;2022-12-18T21:01:14;101235.19;;;-2.26;85.43
17230;BME280;8731;50.364;8.958;2022-12-18T21:05:38;101230.63;;;-2.08;84.82
17230;BME280;8731;50.364;8.958;2022-12-18T21:10:02;101225.66;;;-2.08;84.64
17230;BME280;8731;50.364;8.958;2022-12-18T21:14:26;101239.91;;;-2.12;85.10
17230;BME280;8731;50.364;8.958;2022-12-18T21:18:50;101238.13;;;-2.08;84.71
17230;BME280;8731;50.364;8.958;2022-12-18T21:23:12;101237.69;;;-2.05;84.40
17230;BME280;8731;50.364;8.958;2022-12-18T21:27:36;101247.91;;;-2.04;84.63
17230;BME280;8731;50.364;8.958;2022-12-18T21:31:58;101240.63;;;-2.08;84.68
17230;BME280;8731;50.364;8.958;2022-12-18T21:36:22;101238.94;;;-2.13;85.03
17230;BME280;8731;50.364;8.958;2022-12-18T21:40:45;101243.09;;;-2.08;84.96
17230;BME280;8731;50.364;8.958;2022-12-18T21:45:09;101259.91;;;-2.07;84.41
17230;BME280;8731;50.364;8.958;2022-12-18T21:49:32;101254.53;;;-1.99;84.41
17230;BME280;8731;50.364;8.958;2022-12-18T21:53:55;101245.22;;;-2.00;84.86
17230;BME280;8731;50.364;8.958;2022-12-18T21:58:17;101250.94;;;-1.95;84.88
17230;BME280;8731;50.364;8.958;2022-12-18T22:02:41;101239.84;;;-1.92;84.87
17230;BME280;8731;50.364;8.958;2022-12-18T22:07:05;101245.06;;;-1.90;84.70
17230;BME280;8731;50.364;8.958;2022-12-18T22:11:35;101233.34;;;-1.86;84.44
17230;BME280;8731;50.364;8.958;2022-12-18T22:16:02;101230.41;;;-1.83;84.37
17230;BME280;8731;50.364;8.958;2022-12-18T22:20:26;101216.34;;;-1.82;84.39
17230;BME280;8731;50.364;8.958;2022-12-18T22:24:52;101222.28;;;-1.76;84.29
17230;BME280;8731;50.364;8.958;2022-12-18T22:29:35;101226.84;;;-1.74;84.34
17230;BME280;8731;50.364;8.958;2022-12-18T22:34:20;101225.94;;;-1.74;84.14
17230;BME280;8731;50.364;8.958;2022-12-18T22:38:45;101227.41;;;-1.65;84.39
17230;BME280;8731;50.364;8.958;2022-12-18T22:43:07;101222.88;;;-1.62;84.36
17230;BME280;8731;50.364;8.958;2022-12-18T22:47:30;101223.13;;;-1.61;84.08
17230;BME280;8731;50.364;8.958;2022-12-18T22:51:53;101227.91;;;-1.57;84.64
17230;BME280;8731;50.364;8.958;2022-12-18T22:56:17;101211.81;;;-1.53;84.10
17230;BME280;8731;50.364;8.958;2022-12-18T23:00:39;101209.53;;;-1.57;83.61
17230;BME280;8731;50.364;8.958;2022-12-18T23:05:01;101207.72;;;-1.52;84.00
17230;BME280;8731;50.364;8.958;2022-12-18T23:09:24;101207.28;;;-1.50;83.55
17230;BME280;8731;50.364;8.958;2022-12-18T23:13:48;101184.13;;;-1.55;83.38
17230;BME280;8731;50.364;8.958;2022-12-18T23:18:10;101190.97;;;-1.48;83.76
17230;BME280;8731;50.364;8.958;2022-12-18T23:22:33;101190.47;;;-1.57;83.51
17230;BME280;8731;50.364;8.958;2022-12-18T23:26:55;101196.41;;;-1.45;83.83
17230;BME280;8731;50.364;8.958;2022-12-18T23:31:20;101197.84;;;-1.41;83.59
17230;BME280;8731;50.364;8.958;2022-12-18T23:35:45;101185.75;;;-1.44;83.49
17230;BME280;8731;50.364;8.958;2022-12-18T23:40:08;101196.41;;;-1.45;83.27